sensor_id;sensor_type;location;lat;lon;timestamp;temperature;humidity
67974;DHT22;54756;51.140;6.952;2022-08-02T00:00:42;15.40;17.90
67974;DHT22;54756;51.140;6.952;2022-08-02T00:02:44;15.40;18.80
67974;DHT22;54756;51.140;6.952;2022-08-02T00:04:45;15.40;19.40
67974;DHT22;54756;51.140;6.952;2022-08-02T00:06:46;15.40;19.80
67974;DHT22;54756;51.140;6.952;2022-08-02T00:08:46;15.40;20.30
67974;DHT22;54756;51.140;6.952;2022-08-02T00:10:47;15.30;20.60
67974;DHT22;54756;51.140;6.952;2022-08-02T00:12:48;15.30;21.70
67974;DHT22;54756;51.140;6.952;2022-08-02T00:14:49;15.30;22.00
67974;DHT22;54756;51.140;6.952;2022-08-02T00:16:49;15.30;23.00
67974;DHT22;54756;51.140;6.952;2022-08-02T00:18:50;15.30;23.60
67974;DHT22;54756;51.140;6.952;2022-08-02T00:20:51;15.30;24.40
67974;DHT22;54756;51.140;6.952;2022-08-02T00:22:51;15.20;25.20
67974;DHT22;54756;51.140;6.952;2022-08-02T00:24:52;15.20;25.70
67974;DHT22;54756;51.140;6.952;2022-08-02T00:26:52;15.20;26.50
67974;DHT22;54756;51.140;6.952;2022-08-02T00:28:53;15.20;27.00
67974;DHT22;54756;51.140;6.952;2022-08-02T00:30:55;15.20;27.40
67974;DHT22;54756;51.140;6.952;2022-08-02T00:32:55;15.20;28.70
67974;DHT22;54756;51.140;6.952;2022-08-02T00:34:56;15.20;29.40
67974;DHT22;54756;51.140;6.952;2022-08-02T00:36:57;15.20;31.60
67974;DHT22;54756;51.140;6.952;2022-08-02T00:38:58;15.20;35.30
67974;DHT22;54756;51.140;6.952;2022-08-02T00:40:58;15.20;33.80
67974;DHT22;54756;51.140;6.952;2022-08-02T00:43:01;15.20;32.70
67974;DHT22;54756;51.140;6.952;2022-08-02T00:45:04;15.20;32.00
67974;DHT22;54756;51.140;6.952;2022-08-02T00:47:05;15.20;31.50
67974;DHT22;54756;51.140;6.952;2022-08-02T00:49:06;15.20;31.40
67974;DHT22;54756;51.140;6.952;2022-08-02T00:51:06;15.20;31.30
67974;DHT22;54756;51.140;6.952;2022-08-02T00:53:07;15.30;31.40
67974;DHT22;54756;51.140;6.952;2022-08-02T00:55:08;15.20;33.20
67974;DHT22;54756;51.140;6.952;2022-08-02T00:57:09;15.30;37.60
67974;DHT22;54756;51.140;6.952;2022-08-02T00:59:09;15.30;38.80
67974;DHT22;54756;51.140;6.952;2022-08-02T01:01:10;15.30;38.50
67974;DHT22;54756;51.140;6.952;2022-08-02T01:03:10;15.40;39.50
67974;DHT22;54756;51.140;6.952;2022-08-02T01:05:11;15.40;41.10
67974;DHT22;54756;51.140;6.952;2022-08-02T01:07:12;15.50;38.50
67974;DHT22;54756;51.140;6.952;2022-08-02T01:09:13;15.50;37.20
67974;DHT22;54756;51.140;6.952;2022-08-02T01:11:14;15.50;35.80
67974;DHT22;54756;51.140;6.952;2022-08-02T01:13:15;15.50;35.50
67974;DHT22;54756;51.140;6.952;2022-08-02T01:15:16;15.50;36.20
67974;DHT22;54756;51.140;6.952;2022-08-02T01:19:42;15.50;37.60
67974;DHT22;54756;51.140;6.952;2022-08-02T01:22:01;15.50;36.80
67974;DHT22;54756;51.140;6.952;2022-08-02T01:24:29;15.50;35.80
67974;DHT22;54756;51.140;6.952;2022-08-02T01:29:34;15.40;34.90
67974;DHT22;54756;51.140;6.952;2022-08-02T01:34:19;15.40;35.40
67974;DHT22;54756;51.140;6.952;2022-08-02T01:36:23;15.30;40.40
67974;DHT22;54756;51.140;6.952;2022-08-02T01:38:33;15.30;38.60
67974;DHT22;54756;51.140;6.952;2022-08-02T01:40:36;15.30;37.10
67974;DHT22;54756;51.140;6.952;2022-08-02T01:42:42;15.30;37.10
67974;DHT22;54756;51.140;6.952;2022-08-02T01:44:45;15.20;38.60
67974;DHT22;54756;51.140;6.952;2022-08-02T01:46:49;15.30;38.50
67974;DHT22;54756;51.140;6.952;2022-08-02T01:48:53;15.30;38.20
67974;DHT22;54756;51.140;6.952;2022-08-02T01:50:56;15.30;38.40
67974;DHT22;54756;51.140;6.952;2022-08-02T01:53:02;15.20;38.30
67974;DHT22;54756;51.140;6.952;2022-08-02T01:57:09;15.20;38.80
67974;DHT22;54756;51.140;6.952;2022-08-02T01:59:13;15.20;39.90
67974;DHT22;54756;51.140;6.952;2022-08-02T02:01:17;15.20;40.60
67974;DHT22;54756;51.140;6.952;2022-08-02T02:03:20;15.20;40.20
67974;DHT22;54756;51.140;6.952;2022-08-02T02:05:23;15.20;40.10
67974;DHT22;54756;51.140;6.952;2022-08-02T02:07:26;15.20;40.70
67974;DHT22;54756;51.140;6.952;2022-08-02T02:09:30;15.20;41.60
67974;DHT22;54756;51.140;6.952;2022-08-02T02:11:35;15.10;41.20
67974;DHT22;54756;51.140;6.952;2022-08-02T02:13:37;15.10;40.90
67974;DHT22;54756;51.140;6.952;2022-08-02T02:15:46;15.10;40.90
67974;DHT22;54756;51.140;6.952;2022-08-02T02:17:51;15.10;41.00
67974;DHT22;54756;51.140;6.952;2022-08-02T02:19:52;15.00;40.70
67974;DHT22;54756;51.140;6.952;2022-08-02T02:21:55;14.90;40.90
67974;DHT22;54756;51.140;6.952;2022-08-02T02:23:57;14.90;41.20
67974;DHT22;54756;51.140;6.952;2022-08-02T02:25:58;14.90;41.90
67974;DHT22;54756;51.140;6.952;2022-08-02T02:28:04;14.80;42.40
67974;DHT22;54756;51.140;6.952;2022-08-02T02:30:06;14.80;43.70
67974;DHT22;54756;51.140;6.952;2022-08-02T02:32:07;14.70;43.40
67974;DHT22;54756;51.140;6.952;2022-08-02T02:34:14;14.70;44.40
67974;DHT22;54756;51.140;6.952;2022-08-02T02:36:17;14.60;47.20
67974;DHT22;54756;51.140;6.952;2022-08-02T02:38:19;14.60;47.80
67974;DHT22;54756;51.140;6.952;2022-08-02T02:40:21;14.60;47.40
67974;DHT22;54756;51.140;6.952;2022-08-02T02:42:29;14.60;47.70
67974;DHT22;54756;51.140;6.952;2022-08-02T02:44:31;14.50;48.30
67974;DHT22;54756;51.140;6.952;2022-08-02T02:46:33;14.50;48.10
67974;DHT22;54756;51.140;6.952;2022-08-02T02:48:35;14.50;48.90
67974;DHT22;54756;51.140;6.952;2022-08-02T02:50:37;14.50;49.20
67974;DHT22;54756;51.140;6.952;2022-08-02T02:52:39;14.40;49.10
67974;DHT22;54756;51.140;6.952;2022-08-02T02:54:41;14.40;50.20
67974;DHT22;54756;51.140;6.952;2022-08-02T02:56:43;14.40;50.90
67974;DHT22;54756;51.140;6.952;2022-08-02T02:58:45;14.40;50.80
67974;DHT22;54756;51.140;6.952;2022-08-02T03:00:46;14.30;50.60
67974;DHT22;54756;51.140;6.952;2022-08-02T03:03:06;14.30;51.30
67974;DHT22;54756;51.140;6.952;2022-08-02T03:05:09;14.30;51.50
67974;DHT22;54756;51.140;6.952;2022-08-02T03:07:10;14.30;51.60
67974;DHT22;54756;51.140;6.952;2022-08-02T03:09:11;14.30;51.80
67974;DHT22;54756;51.140;6.952;2022-08-02T03:11:12;14.20;52.30
67974;DHT22;54756;51.140;6.952;2022-08-02T03:13:13;14.20;52.60
67974;DHT22;54756;51.140;6.952;2022-08-02T03:15:16;14.20;52.80
67974;DHT22;54756;51.140;6.952;2022-08-02T03:17:17;14.20;53.10
67974;DHT22;54756;51.140;6.952;2022-08-02T03:19:20;14.10;53.50
67974;DHT22;54756;51.140;6.952;2022-08-02T03:21:22;14.10;54.30
67974;DHT22;54756;51.140;6.952;2022-08-02T03:23:22;14.10;54.70
67974;DHT22;54756;51.140;6.952;2022-08-02T03:25:23;14.10;56.00
67974;DHT22;54756;51.140;6.952;2022-08-02T03:27:23;14.10;55.80
67974;DHT22;54756;51.140;6.952;2022-08-02T03:29:24;14.10;55.70
67974;DHT22;54756;51.140;6.952;2022-08-02T03:31:25;14.10;57.10
67974;DHT22;54756;51.140;6.952;2022-08-02T03:33:26;14.10;59.80
67974;DHT22;54756;51.140;6.952;2022-08-02T03:35:27;14.20;63.60
67974;DHT22;54756;51.140;6.952;2022-08-02T03:37:28;14.20;64.00
67974;DHT22;54756;51.140;6.952;2022-08-02T03:39:30;14.20;64.40
67974;DHT22;54756;51.140;6.952;2022-08-02T03:41:32;14.30;64.60
67974;DHT22;54756;51.140;6.952;2022-08-02T03:43:34;14.30;61.60
67974;DHT22;54756;51.140;6.952;2022-08-02T03:45:38;14.20;59.30
67974;DHT22;54756;51.140;6.952;2022-08-02T03:47:39;14.20;58.80
67974;DHT22;54756;51.140;6.952;2022-08-02T03:49:41;14.20;60.00
67974;DHT22;54756;51.140;6.952;2022-08-02T03:51:43;14.20;59.80
67974;DHT22;54756;51.140;6.952;2022-08-02T03:53:44;14.10;59.70
67974;DHT22;54756;51.140;6.952;2022-08-02T03:55:45;14.10;59.70
67974;DHT22;54756;51.140;6.952;2022-08-02T03:57:46;14.10;59.00
67974;DHT22;54756;51.140;6.952;2022-08-02T03:59:48;14.10;58.90
67974;DHT22;54756;51.140;6.952;2022-08-02T04:01:49;14.10;59.60
67974;DHT22;54756;51.140;6.952;2022-08-02T04:03:49;14.10;59.50
67974;DHT22;54756;51.140;6.952;2022-08-02T04:05:50;14.10;61.40
67974;DHT22;54756;51.140;6.952;2022-08-02T04:07:51;14.10;62.80
67974;DHT22;54756;51.140;6.952;2022-08-02T04:09:52;14.10;62.00
67974;DHT22;54756;51.140;6.952;2022-08-02T04:11:52;14.10;61.60
67974;DHT22;54756;51.140;6.952;2022-08-02T04:13:53;14.10;61.90
67974;DHT22;54756;51.140;6.952;2022-08-02T04:15:57;14.10;62.50
67974;DHT22;54756;51.140;6.952;2022-08-02T04:17:59;14.10;62.80
67974;DHT22;54756;51.140;6.952;2022-08-02T04:20:13;14.20;64.60
67974;DHT22;54756;51.140;6.952;2022-08-02T04:22:39;14.30;67.10
67974;DHT22;54756;51.140;6.952;2022-08-02T04:24:45;14.40;66.80
67974;DHT22;54756;51.140;6.952;2022-08-02T04:26:47;14.40;66.70
67974;DHT22;54756;51.140;6.952;2022-08-02T04:28:47;14.50;65.90
67974;DHT22;54756;51.140;6.952;2022-08-02T04:30:50;14.50;65.30
67974;DHT22;54756;51.140;6.952;2022-08-02T04:32:52;14.60;68.60
67974;DHT22;54756;51.140;6.952;2022-08-02T04:34:55;14.60;69.40
67974;DHT22;54756;51.140;6.952;2022-08-02T04:36:57;14.70;69.30
67974;DHT22;54756;51.140;6.952;2022-08-02T04:38:59;14.80;69.60
67974;DHT22;54756;51.140;6.952;2022-08-02T04:40:59;14.80;69.10
67974;DHT22;54756;51.140;6.952;2022-08-02T04:43:00;14.90;69.80
67974;DHT22;54756;51.140;6.952;2022-08-02T04:45:00;15.00;69.20
67974;DHT22;54756;51.140;6.952;2022-08-02T04:47:02;15.10;68.40
67974;DHT22;54756;51.140;6.952;2022-08-02T04:49:05;15.10;67.00
67974;DHT22;54756;51.140;6.952;2022-08-02T04:51:05;15.20;66.30
67974;DHT22;54756;51.140;6.952;2022-08-02T04:53:06;15.20;65.90
67974;DHT22;54756;51.140;6.952;2022-08-02T04:55:09;15.30;65.00
67974;DHT22;54756;51.140;6.952;2022-08-02T04:57:09;15.30;63.90
67974;DHT22;54756;51.140;6.952;2022-08-02T04:59:28;15.40;63.00
67974;DHT22;54756;51.140;6.952;2022-08-02T05:01:29;15.40;62.60
67974;DHT22;54756;51.140;6.952;2022-08-02T05:03:30;15.50;62.50
67974;DHT22;54756;51.140;6.952;2022-08-02T05:05:30;15.60;61.20
67974;DHT22;54756;51.140;6.952;2022-08-02T05:07:31;15.60;59.80
67974;DHT22;54756;51.140;6.952;2022-08-02T05:09:31;15.60;59.60
67974;DHT22;54756;51.140;6.952;2022-08-02T05:11:33;15.60;57.90
67974;DHT22;54756;51.140;6.952;2022-08-02T05:13:33;15.70;57.40
67974;DHT22;54756;51.140;6.952;2022-08-02T05:15:34;15.70;56.80
67974;DHT22;54756;51.140;6.952;2022-08-02T05:17:35;15.80;57.10
67974;DHT22;54756;51.140;6.952;2022-08-02T05:19:36;15.90;57.30
67974;DHT22;54756;51.140;6.952;2022-08-02T05:21:36;15.90;55.20
67974;DHT22;54756;51.140;6.952;2022-08-02T05:23:37;16.00;54.40
67974;DHT22;54756;51.140;6.952;2022-08-02T05:25:37;16.00;53.50
67974;DHT22;54756;51.140;6.952;2022-08-02T05:27:38;16.10;52.60
67974;DHT22;54756;51.140;6.952;2022-08-02T05:29:39;16.20;51.50
67974;DHT22;54756;51.140;6.952;2022-08-02T05:31:39;16.20;50.60
67974;DHT22;54756;51.140;6.952;2022-08-02T05:33:40;16.30;49.90
67974;DHT22;54756;51.140;6.952;2022-08-02T05:35:40;16.40;49.40
67974;DHT22;54756;51.140;6.952;2022-08-02T05:37:41;16.40;48.70
67974;DHT22;54756;51.140;6.952;2022-08-02T05:39:42;16.50;48.00
67974;DHT22;54756;51.140;6.952;2022-08-02T05:41:42;16.50;47.20
67974;DHT22;54756;51.140;6.952;2022-08-02T05:43:43;16.60;46.80
67974;DHT22;54756;51.140;6.952;2022-08-02T05:45:44;16.60;46.30
67974;DHT22;54756;51.140;6.952;2022-08-02T05:47:45;16.70;46.10
67974;DHT22;54756;51.140;6.952;2022-08-02T05:49:45;16.70;45.50
67974;DHT22;54756;51.140;6.952;2022-08-02T05:59:47;17.00;41.60
67974;DHT22;54756;51.140;6.952;2022-08-02T06:01:55;17.00;40.40
67974;DHT22;54756;51.140;6.952;2022-08-02T06:03:59;17.10;39.70
67974;DHT22;54756;51.140;6.952;2022-08-02T06:06:09;17.20;39.40
67974;DHT22;54756;51.140;6.952;2022-08-02T06:08:10;17.20;38.70
67974;DHT22;54756;51.140;6.952;2022-08-02T06:10:15;17.40;38.10
67974;DHT22;54756;51.140;6.952;2022-08-02T06:12:17;17.40;36.90
67974;DHT22;54756;51.140;6.952;2022-08-02T06:14:19;17.50;34.90
67974;DHT22;54756;51.140;6.952;2022-08-02T06:16:20;17.60;34.00
67974;DHT22;54756;51.140;6.952;2022-08-02T06:18:21;17.70;33.40
67974;DHT22;54756;51.140;6.952;2022-08-02T06:20:23;17.80;31.70
67974;DHT22;54756;51.140;6.952;2022-08-02T06:22:26;17.90;30.40
67974;DHT22;54756;51.140;6.952;2022-08-02T06:24:27;18.00;29.40
67974;DHT22;54756;51.140;6.952;2022-08-02T06:26:30;18.00;27.90
67974;DHT22;54756;51.140;6.952;2022-08-02T06:28:32;18.10;26.20
67974;DHT22;54756;51.140;6.952;2022-08-02T06:30:35;18.20;23.40
67974;DHT22;54756;51.140;6.952;2022-08-02T06:32:35;18.30;23.70
67974;DHT22;54756;51.140;6.952;2022-08-02T06:34:37;18.40;22.80
67974;DHT22;54756;51.140;6.952;2022-08-02T06:36:41;18.40;21.90
67974;DHT22;54756;51.140;6.952;2022-08-02T06:38:45;18.50;21.40
67974;DHT22;54756;51.140;6.952;2022-08-02T06:40:55;18.50;21.30
67974;DHT22;54756;51.140;6.952;2022-08-02T06:45:06;18.70;19.10
67974;DHT22;54756;51.140;6.952;2022-08-02T06:47:07;18.80;19.20
67974;DHT22;54756;51.140;6.952;2022-08-02T06:49:08;18.90;19.40
67974;DHT22;54756;51.140;6.952;2022-08-02T06:51:08;19.00;18.40
67974;DHT22;54756;51.140;6.952;2022-08-02T06:53:10;19.10;16.40
67974;DHT22;54756;51.140;6.952;2022-08-02T06:55:11;19.20;15.50
67974;DHT22;54756;51.140;6.952;2022-08-02T06:57:11;19.30;14.60
67974;DHT22;54756;51.140;6.952;2022-08-02T06:59:12;19.40;14.00
67974;DHT22;54756;51.140;6.952;2022-08-02T07:01:13;19.50;11.30
67974;DHT22;54756;51.140;6.952;2022-08-02T07:03:14;19.60;9.80
67974;DHT22;54756;51.140;6.952;2022-08-02T07:05:14;19.70;9.00
67974;DHT22;54756;51.140;6.952;2022-08-02T07:07:15;19.80;6.20
67974;DHT22;54756;51.140;6.952;2022-08-02T07:09:16;19.90;5.70
67974;DHT22;54756;51.140;6.952;2022-08-02T07:11:16;20.00;4.80
67974;DHT22;54756;51.140;6.952;2022-08-02T07:13:18;20.10;3.10
67974;DHT22;54756;51.140;6.952;2022-08-02T07:15:19;20.20;2.60
67974;DHT22;54756;51.140;6.952;2022-08-02T07:17:19;20.30;1.20
67974;DHT22;54756;51.140;6.952;2022-08-02T07:19:20;20.40;1.00
67974;DHT22;54756;51.140;6.952;2022-08-02T07:21:20;20.50;1.00
67974;DHT22;54756;51.140;6.952;2022-08-02T07:23:21;20.60;1.00
67974;DHT22;54756;51.140;6.952;2022-08-02T07:25:22;20.70;1.00
67974;DHT22;54756;51.140;6.952;2022-08-02T07:27:23;20.70;1.00
67974;DHT22;54756;51.140;6.952;2022-08-02T07:29:24;20.80;1.00
67974;DHT22;54756;51.140;6.952;2022-08-02T07:31:24;20.90;1.00
67974;DHT22;54756;51.140;6.952;2022-08-02T07:33:25;21.00;1.00
67974;DHT22;54756;51.140;6.952;2022-08-02T07:35:27;21.10;1.00
67974;DHT22;54756;51.140;6.952;2022-08-02T07:37:29;21.20;1.00
67974;DHT22;54756;51.140;6.952;2022-08-02T07:39:31;21.30;1.00
67974;DHT22;54756;51.140;6.952;2022-08-02T07:41:32;21.50;1.00
67974;DHT22;54756;51.140;6.952;2022-08-02T07:43:32;21.60;1.00
67974;DHT22;54756;51.140;6.952;2022-08-02T07:45:33;21.80;1.00
67974;DHT22;54756;51.140;6.952;2022-08-02T07:47:38;21.90;1.00
67974;DHT22;54756;51.140;6.952;2022-08-02T07:49:38;22.00;1.00
67974;DHT22;54756;51.140;6.952;2022-08-02T07:51:39;22.20;1.00
67974;DHT22;54756;51.140;6.952;2022-08-02T07:53:40;22.30;1.00
67974;DHT22;54756;51.140;6.952;2022-08-02T07:55:42;22.40;1.00
67974;DHT22;54756;51.140;6.952;2022-08-02T07:57:43;22.50;1.00
67974;DHT22;54756;51.140;6.952;2022-08-02T07:59:44;22.60;1.00
67974;DHT22;54756;51.140;6.952;2022-08-02T08:01:45;22.80;1.00
67974;DHT22;54756;51.140;6.952;2022-08-02T08:03:46;22.80;1.00
67974;DHT22;54756;51.140;6.952;2022-08-02T08:05:47;22.90;1.00
67974;DHT22;54756;51.140;6.952;2022-08-02T08:07:47;22.90;1.00
67974;DHT22;54756;51.140;6.952;2022-08-02T08:09:48;23.00;1.00
67974;DHT22;54756;51.140;6.952;2022-08-02T08:11:50;23.10;1.00
67974;DHT22;54756;51.140;6.952;2022-08-02T08:13:50;23.20;1.00
67974;DHT22;54756;51.140;6.952;2022-08-02T08:15:51;23.40;1.00
67974;DHT22;54756;51.140;6.952;2022-08-02T08:17:51;23.60;1.00
67974;DHT22;54756;51.140;6.952;2022-08-02T08:19:52;23.70;1.00
67974;DHT22;54756;51.140;6.952;2022-08-02T08:21:53;23.80;1.00
67974;DHT22;54756;51.140;6.952;2022-08-02T08:23:53;24.00;1.00
67974;DHT22;54756;51.140;6.952;2022-08-02T08:25:54;24.00;1.00
67974;DHT22;54756;51.140;6.952;2022-08-02T08:27:54;24.10;1.00
67974;DHT22;54756;51.140;6.952;2022-08-02T08:29:55;24.30;1.00
67974;DHT22;54756;51.140;6.952;2022-08-02T08:31:56;24.40;1.00
67974;DHT22;54756;51.140;6.952;2022-08-02T08:33:57;24.50;1.00
67974;DHT22;54756;51.140;6.952;2022-08-02T08:35:57;24.80;99.90
67974;DHT22;54756;51.140;6.952;2022-08-02T08:37:58;24.90;99.90
67974;DHT22;54756;51.140;6.952;2022-08-02T08:39:58;25.00;99.90
67974;DHT22;54756;51.140;6.952;2022-08-02T08:41:59;25.10;99.90
67974;DHT22;54756;51.140;6.952;2022-08-02T08:44:00;25.20;99.90
67974;DHT22;54756;51.140;6.952;2022-08-02T08:46:01;25.30;99.90
67974;DHT22;54756;51.140;6.952;2022-08-02T08:48:09;25.40;99.90
67974;DHT22;54756;51.140;6.952;2022-08-02T08:50:18;25.40;99.90
67974;DHT22;54756;51.140;6.952;2022-08-02T08:52:22;25.40;99.90
67974;DHT22;54756;51.140;6.952;2022-08-02T08:54:27;25.50;99.90
67974;DHT22;54756;51.140;6.952;2022-08-02T08:56:33;25.60;99.90
67974;DHT22;54756;51.140;6.952;2022-08-02T08:58:34;25.60;99.90
67974;DHT22;54756;51.140;6.952;2022-08-02T09:00:35;25.50;1.00
67974;DHT22;54756;51.140;6.952;2022-08-02T09:02:36;25.70;1.00
67974;DHT22;54756;51.140;6.952;2022-08-02T09:04:37;25.80;99.90
67974;DHT22;54756;51.140;6.952;2022-08-02T09:06:41;26.00;1.00
67974;DHT22;54756;51.140;6.952;2022-08-02T09:08:42;26.30;99.90
67974;DHT22;54756;51.140;6.952;2022-08-02T09:10:44;26.40;99.90
67974;DHT22;54756;51.140;6.952;2022-08-02T09:12:45;26.40;99.90
67974;DHT22;54756;51.140;6.952;2022-08-02T09:14:46;26.40;99.90
67974;DHT22;54756;51.140;6.952;2022-08-02T09:17:07;26.50;99.90
67974;DHT22;54756;51.140;6.952;2022-08-02T09:19:22;26.50;99.90
67974;DHT22;54756;51.140;6.952;2022-08-02T09:21:24;26.50;99.90
67974;DHT22;54756;51.140;6.952;2022-08-02T09:23:49;26.50;99.90
67974;DHT22;54756;51.140;6.952;2022-08-02T09:25:58;26.60;99.90
67974;DHT22;54756;51.140;6.952;2022-08-02T09:28:04;26.70;99.90
67974;DHT22;54756;51.140;6.952;2022-08-02T09:30:06;26.90;99.90
67974;DHT22;54756;51.140;6.952;2022-08-02T09:32:12;27.10;99.90
67974;DHT22;54756;51.140;6.952;2022-08-02T09:34:13;27.30;99.90
67974;DHT22;54756;51.140;6.952;2022-08-02T09:36:15;27.60;99.90
67974;DHT22;54756;51.140;6.952;2022-08-02T09:38:15;27.90;99.90
67974;DHT22;54756;51.140;6.952;2022-08-02T09:40:20;28.00;99.90
67974;DHT22;54756;51.140;6.952;2022-08-02T09:42:34;28.20;99.90
67974;DHT22;54756;51.140;6.952;2022-08-02T09:44:35;28.40;99.90
67974;DHT22;54756;51.140;6.952;2022-08-02T09:46:40;28.50;99.90
67974;DHT22;54756;51.140;6.952;2022-08-02T09:48:55;28.60;99.90
67974;DHT22;54756;51.140;6.952;2022-08-02T09:50:57;28.80;99.90
67974;DHT22;54756;51.140;6.952;2022-08-02T09:52:57;29.20;99.90
67974;DHT22;54756;51.140;6.952;2022-08-02T09:55:05;29.50;99.90
67974;DHT22;54756;51.140;6.952;2022-08-02T09:57:05;29.80;99.90
67974;DHT22;54756;51.140;6.952;2022-08-02T09:59:07;29.90;99.90
67974;DHT22;54756;51.140;6.952;2022-08-02T10:01:08;29.80;70.20
67974;DHT22;54756;51.140;6.952;2022-08-02T10:03:10;29.70;66.60
67974;DHT22;54756;51.140;6.952;2022-08-02T10:05:11;29.60;67.30
67974;DHT22;54756;51.140;6.952;2022-08-02T10:07:12;29.60;65.20
67974;DHT22;54756;51.140;6.952;2022-08-02T10:09:13;29.60;60.20
67974;DHT22;54756;51.140;6.952;2022-08-02T10:11:13;29.80;59.30
67974;DHT22;54756;51.140;6.952;2022-08-02T10:13:14;30.10;46.50
67974;DHT22;54756;51.140;6.952;2022-08-02T10:15:16;30.30;52.90
67974;DHT22;54756;51.140;6.952;2022-08-02T10:17:18;30.60;42.00
67974;DHT22;54756;51.140;6.952;2022-08-02T10:19:19;31.00;42.70
67974;DHT22;54756;51.140;6.952;2022-08-02T10:23:45;31.10;54.80
67974;DHT22;54756;51.140;6.952;2022-08-02T10:25:50;31.10;46.50
67974;DHT22;54756;51.140;6.952;2022-08-02T10:27:52;31.10;41.20
67974;DHT22;54756;51.140;6.952;2022-08-02T10:29:54;31.40;49.00
67974;DHT22;54756;51.140;6.952;2022-08-02T10:32:00;31.80;46.60
67974;DHT22;54756;51.140;6.952;2022-08-02T10:34:12;31.90;44.10
67974;DHT22;54756;51.140;6.952;2022-08-02T10:36:14;31.70;42.00
67974;DHT22;54756;51.140;6.952;2022-08-02T10:38:15;31.30;41.70
67974;DHT22;54756;51.140;6.952;2022-08-02T10:40:16;30.90;43.00
67974;DHT22;54756;51.140;6.952;2022-08-02T10:44:41;30.30;49.60
67974;DHT22;54756;51.140;6.952;2022-08-02T10:46:42;30.20;51.00
67974;DHT22;54756;51.140;6.952;2022-08-02T10:49:06;30.00;49.00
67974;DHT22;54756;51.140;6.952;2022-08-02T10:51:07;30.20;46.20
67974;DHT22;54756;51.140;6.952;2022-08-02T10:55:23;30.90;36.50
67974;DHT22;54756;51.140;6.952;2022-08-02T10:57:29;31.40;35.90
67974;DHT22;54756;51.140;6.952;2022-08-02T10:59:35;31.80;44.20
67974;DHT22;54756;51.140;6.952;2022-08-02T11:01:42;32.10;39.70
67974;DHT22;54756;51.140;6.952;2022-08-02T11:03:43;32.10;37.20
67974;DHT22;54756;51.140;6.952;2022-08-02T11:06:02;32.10;36.40
67974;DHT22;54756;51.140;6.952;2022-08-02T11:08:33;31.90;43.70
67974;DHT22;54756;51.140;6.952;2022-08-02T11:10:38;31.90;36.90
67974;DHT22;54756;51.140;6.952;2022-08-02T11:15:03;32.30;44.20
67974;DHT22;54756;51.140;6.952;2022-08-02T11:17:05;32.70;44.40
67974;DHT22;54756;51.140;6.952;2022-08-02T11:19:06;33.30;48.70
67974;DHT22;54756;51.140;6.952;2022-08-02T11:21:29;33.80;45.90
67974;DHT22;54756;51.140;6.952;2022-08-02T11:23:36;34.00;43.30
67974;DHT22;54756;51.140;6.952;2022-08-02T11:25:37;34.30;43.30
67974;DHT22;54756;51.140;6.952;2022-08-02T11:27:38;34.10;44.80
67974;DHT22;54756;51.140;6.952;2022-08-02T11:29:44;33.90;44.50
67974;DHT22;54756;51.140;6.952;2022-08-02T11:31:46;33.80;43.30
67974;DHT22;54756;51.140;6.952;2022-08-02T11:33:49;33.90;42.50
67974;DHT22;54756;51.140;6.952;2022-08-02T11:35:50;34.00;41.50
67974;DHT22;54756;51.140;6.952;2022-08-02T11:37:51;34.30;41.30
67974;DHT22;54756;51.140;6.952;2022-08-02T11:39:51;34.50;32.80
67974;DHT22;54756;51.140;6.952;2022-08-02T11:41:55;34.40;36.90
67974;DHT22;54756;51.140;6.952;2022-08-02T11:43:56;34.20;24.70
67974;DHT22;54756;51.140;6.952;2022-08-02T11:45:57;34.00;28.70
67974;DHT22;54756;51.140;6.952;2022-08-02T11:48:01;33.90;29.50
67974;DHT22;54756;51.140;6.952;2022-08-02T11:50:08;34.20;25.20
67974;DHT22;54756;51.140;6.952;2022-08-02T11:52:09;34.50;23.70
67974;DHT22;54756;51.140;6.952;2022-08-02T11:54:10;34.30;24.60
67974;DHT22;54756;51.140;6.952;2022-08-02T11:56:12;34.10;24.90
67974;DHT22;54756;51.140;6.952;2022-08-02T11:58:12;33.80;25.50
67974;DHT22;54756;51.140;6.952;2022-08-02T12:00:16;33.70;26.70
67974;DHT22;54756;51.140;6.952;2022-08-02T12:02:18;33.80;24.60
67974;DHT22;54756;51.140;6.952;2022-08-02T12:04:19;34.40;25.50
67974;DHT22;54756;51.140;6.952;2022-08-02T12:06:19;35.20;24.90
67974;DHT22;54756;51.140;6.952;2022-08-02T12:08:20;35.80;25.80
67974;DHT22;54756;51.140;6.952;2022-08-02T12:10:24;36.40;26.50
67974;DHT22;54756;51.140;6.952;2022-08-02T12:12:24;36.80;25.10
67974;DHT22;54756;51.140;6.952;2022-08-02T12:14:27;36.70;26.00
67974;DHT22;54756;51.140;6.952;2022-08-02T12:16:37;36.30;24.50
67974;DHT22;54756;51.140;6.952;2022-08-02T12:18:56;35.60;25.70
67974;DHT22;54756;51.140;6.952;2022-08-02T12:21:24;34.50;24.80
67974;DHT22;54756;51.140;6.952;2022-08-02T12:23:26;33.70;30.00
67974;DHT22;54756;51.140;6.952;2022-08-02T12:25:27;33.50;33.30
67974;DHT22;54756;51.140;6.952;2022-08-02T12:27:38;33.70;31.30
67974;DHT22;54756;51.140;6.952;2022-08-02T12:29:42;34.00;28.80
67974;DHT22;54756;51.140;6.952;2022-08-02T12:31:46;34.20;23.60
67974;DHT22;54756;51.140;6.952;2022-08-02T12:33:51;34.30;19.60
67974;DHT22;54756;51.140;6.952;2022-08-02T12:35:52;34.20;16.80
67974;DHT22;54756;51.140;6.952;2022-08-02T12:37:54;34.00;13.10
67974;DHT22;54756;51.140;6.952;2022-08-02T12:39:55;34.80;13.20
67974;DHT22;54756;51.140;6.952;2022-08-02T12:41:56;36.40;12.70
67974;DHT22;54756;51.140;6.952;2022-08-02T12:43:57;38.00;7.80
67974;DHT22;54756;51.140;6.952;2022-08-02T12:45:57;39.60;5.10
67974;DHT22;54756;51.140;6.952;2022-08-02T12:47:59;40.20;5.00
67974;DHT22;54756;51.140;6.952;2022-08-02T12:50:20;41.10;4.40
67974;DHT22;54756;51.140;6.952;2022-08-02T12:52:23;42.10;1.00
67974;DHT22;54756;51.140;6.952;2022-08-02T12:54:25;42.00;1.00
67974;DHT22;54756;51.140;6.952;2022-08-02T12:56:31;41.30;1.00
67974;DHT22;54756;51.140;6.952;2022-08-02T12:58:48;41.60;1.00
67974;DHT22;54756;51.140;6.952;2022-08-02T13:00:59;41.80;1.20
67974;DHT22;54756;51.140;6.952;2022-08-02T13:03:00;41.80;1.00
67974;DHT22;54756;51.140;6.952;2022-08-02T13:05:01;41.40;1.00
67974;DHT22;54756;51.140;6.952;2022-08-02T13:07:03;41.20;1.00
67974;DHT22;54756;51.140;6.952;2022-08-02T13:09:14;41.40;1.00
67974;DHT22;54756;51.140;6.952;2022-08-02T13:11:15;41.00;1.00
67974;DHT22;54756;51.140;6.952;2022-08-02T13:13:16;40.80;1.00
67974;DHT22;54756;51.140;6.952;2022-08-02T13:15:17;40.80;1.00
67974;DHT22;54756;51.140;6.952;2022-08-02T13:17:18;41.10;1.00
67974;DHT22;54756;51.140;6.952;2022-08-02T13:19:19;41.70;1.00
67974;DHT22;54756;51.140;6.952;2022-08-02T13:21:19;41.80;1.00
67974;DHT22;54756;51.140;6.952;2022-08-02T13:23:20;41.70;1.00
67974;DHT22;54756;51.140;6.952;2022-08-02T13:25:21;41.60;1.00
67974;DHT22;54756;51.140;6.952;2022-08-02T13:27:26;40.00;1.00